sensor_id;sensor_type;location;lat;lon;timestamp;pressure;altitude;pressure_sealevel;temperature;humidity
19672;BME280;9983;51.114;13.788;2023-04-21T00:02:58;99534.41;;;11.78;100.00
19672;BME280;9983;51.114;13.788;2023-04-21T00:07:58;99529.66;;;11.80;100.00
19672;BME280;9983;51.114;13.788;2023-04-21T00:12:58;99534.75;;;11.75;100.00
19672;BME280;9983;51.114;13.788;2023-04-21T00:17:58;99524.03;;;11.67;100.00
19672;BME280;9983;51.114;13.788;2023-04-21T00:22:59;99525.44;;;11.63;100.00
19672;BME280;9983;51.114;13.788;2023-04-21T00:27:59;99518.94;;;11.72;100.00
19672;BME280;9983;51.114;13.788;2023-04-21T00:32:59;99521.00;;;11.70;100.00
19672;BME280;9983;51.114;13.788;2023-04-21T00:38:00;99508.22;;;11.72;100.00
19672;BME280;9983;51.114;13.788;2023-04-21T00:43:00;99503.41;;;11.67;100.00
19672;BME280;9983;51.114;13.788;2023-04-21T00:48:00;99502.03;;;11.71;100.00
19672;BME280;9983;51.114;13.788;2023-04-21T00:53:01;99497.84;;;11.69;100.00
19672;BME280;9983;51.114;13.788;2023-04-21T00:58:02;99500.81;;;11.74;100.00
19672;BME280;9983;51.114;13.788;2023-04-21T01:03:03;99502.38;;;11.68;100.00
19672;BME280;9983;51.114;13.788;2023-04-21T01:08:05;99500.59;;;11.61;100.00
19672;BME280;9983;51.114;13.788;2023-04-21T01:13:05;99492.47;;;11.69;100.00
19672;BME280;9983;51.114;13.788;2023-04-21T01:18:05;99502.03;;;11.49;100.00
19672;BME280;9983;51.114;13.788;2023-04-21T01:23:06;99494.16;;;11.24;100.00
19672;BME280;9983;51.114;13.788;2023-04-21T01:28:06;99486.13;;;11.24;100.00
19672;BME280;9983;51.114;13.788;2023-04-21T01:33:06;99489.97;;;10.99;100.00
19672;BME280;9983;51.114;13.788;2023-04-21T01:38:06;99481.25;;;10.97;100.00
19672;BME280;9983;51.114;13.788;2023-04-21T01:43:07;99480.56;;;11.03;100.00
19672;BME280;9983;51.114;13.788;2023-04-21T01:48:07;99495.53;;;10.67;100.00
19672;BME280;9983;51.114;13.788;2023-04-21T01:53:07;99472.41;;;10.65;100.00
19672;BME280;9983;51.114;13.788;2023-04-21T01:58:08;99466.06;;;10.58;100.00
19672;BME280;9983;51.114;13.788;2023-04-21T02:03:08;99465.50;;;10.32;100.00
19672;BME280;9983;51.114;13.788;2023-04-21T02:08:08;99468.22;;;10.24;100.00
19672;BME280;9983;51.114;13.788;2023-04-21T02:13:09;99455.81;;;10.23;100.00
19672;BME280;9983;51.114;13.788;2023-04-21T02:18:09;99464.28;;;9.96;100.00
19672;BME280;9983;51.114;13.788;2023-04-21T02:23:09;99465.25;;;10.03;100.00
19672;BME280;9983;51.114;13.788;2023-04-21T02:28:10;99468.53;;;10.13;100.00
19672;BME280;9983;51.114;13.788;2023-04-21T02:33:10;99462.22;;;9.98;100.00
19672;BME280;9983;51.114;13.788;2023-04-21T02:38:10;99462.94;;;9.92;100.00
19672;BME280;9983;51.114;13.788;2023-04-21T02:43:12;99465.63;;;9.83;100.00
19672;BME280;9983;51.114;13.788;2023-04-21T02:48:13;99462.28;;;9.81;100.00
19672;BME280;9983;51.114;13.788;2023-04-21T02:53:13;99462.94;;;9.83;100.00
19672;BME280;9983;51.114;13.788;2023-04-21T02:58:13;99460.97;;;9.61;100.00
19672;BME280;9983;51.114;13.788;2023-04-21T03:03:14;99466.34;;;9.53;100.00
19672;BME280;9983;51.114;13.788;2023-04-21T03:08:14;99459.16;;;9.54;100.00
19672;BME280;9983;51.114;13.788;2023-04-21T03:13:15;99467.34;;;9.20;100.00
19672;BME280;9983;51.114;13.788;2023-04-21T03:18:17;99466.28;;;8.88;100.00
19672;BME280;9983;51.114;13.788;2023-04-21T03:23:18;99458.94;;;8.98;100.00
19672;BME280;9983;51.114;13.788;2023-04-21T03:28:18;99457.75;;;8.85;100.00
19672;BME280;9983;51.114;13.788;2023-04-21T03:33:18;99463.59;;;8.88;100.00
19672;BME280;9983;51.114;13.788;2023-04-21T03:38:18;99467.28;;;8.87;100.00
19672;BME280;9983;51.114;13.788;2023-04-21T03:43:19;99476.34;;;8.44;100.00
19672;BME280;9983;51.114;13.788;2023-04-21T03:48:19;99477.19;;;8.45;100.00
19672;BME280;9983;51.114;13.788;2023-04-21T03:53:20;99477.00;;;8.12;100.00
19672;BME280;9983;51.114;13.788;2023-04-21T03:58:20;99470.56;;;7.97;100.00
19672;BME280;9983;51.114;13.788;2023-04-21T04:03:20;99476.47;;;8.34;100.00
19672;BME280;9983;51.114;13.788;2023-04-21T04:08:20;99487.47;;;8.06;100.00
19672;BME280;9983;51.114;13.788;2023-04-21T04:13:21;99505.75;;;8.44;100.00
19672;BME280;9983;51.114;13.788;2023-04-21T04:18:21;99487.63;;;8.04;100.00
19672;BME280;9983;51.114;13.788;2023-04-21T04:23:21;99485.19;;;8.11;100.00
19672;BME280;9983;51.114;13.788;2023-04-21T04:28:22;99490.00;;;7.81;100.00
19672;BME280;9983;51.114;13.788;2023-04-21T04:33:22;99496.38;;;7.88;100.00
19672;BME280;9983;51.114;13.788;2023-04-21T04:38:22;99494.13;;;7.32;100.00
19672;BME280;9983;51.114;13.788;2023-04-21T04:43:23;99492.28;;;7.50;100.00
19672;BME280;9983;51.114;13.788;2023-04-21T04:48:24;99492.91;;;7.96;100.00
19672;BME280;9983;51.114;13.788;2023-04-21T04:53:27;99490.63;;;8.01;100.00
19672;BME280;9983;51.114;13.788;2023-04-21T04:58:27;99498.91;;;7.90;100.00
19672;BME280;9983;51.114;13.788;2023-04-21T05:03:27;99490.25;;;7.96;100.00
19672;BME280;9983;51.114;13.788;2023-04-21T05:08:28;99504.41;;;8.22;100.00
19672;BME280;9983;51.114;13.788;2023-04-21T05:13:28;99503.19;;;8.34;100.00
19672;BME280;9983;51.114;13.788;2023-04-21T05:18:28;99509.06;;;8.20;100.00
19672;BME280;9983;51.114;13.788;2023-04-21T05:23:28;99514.34;;;8.72;100.00
19672;BME280;9983;51.114;13.788;2023-04-21T05:28:29;99512.38;;;8.82;100.00
19672;BME280;9983;51.114;13.788;2023-04-21T05:33:30;99515.38;;;8.87;100.00
19672;BME280;9983;51.114;13.788;2023-04-21T05:38:30;99511.63;;;9.22;100.00
19672;BME280;9983;51.114;13.788;2023-04-21T05:43:31;99508.81;;;9.32;100.00
19672;BME280;9983;51.114;13.788;2023-04-21T05:48:32;99506.97;;;9.48;100.00
19672;BME280;9983;51.114;13.788;2023-04-21T05:53:32;99505.47;;;9.70;100.00
19672;BME280;9983;51.114;13.788;2023-04-21T05:58:33;99498.75;;;9.90;100.00
19672;BME280;9983;51.114;13.788;2023-04-21T06:03:33;99493.84;;;10.26;100.00
19672;BME280;9983;51.114;13.788;2023-04-21T06:08:33;99498.94;;;10.52;100.00
19672;BME280;9983;51.114;13.788;2023-04-21T06:13:33;99493.75;;;10.82;100.00
19672;BME280;9983;51.114;13.788;2023-04-21T06:18:34;99487.84;;;11.17;100.00
19672;BME280;9983;51.114;13.788;2023-04-21T06:23:34;99481.34;;;11.34;100.00
19672;BME280;9983;51.114;13.788;2023-04-21T06:28:35;99481.97;;;11.82;100.00
19672;BME280;9983;51.114;13.788;2023-04-21T06:33:35;99481.28;;;12.18;100.00
19672;BME280;9983;51.114;13.788;2023-04-21T06:38:36;99478.84;;;12.52;100.00
19672;BME280;9983;51.114;13.788;2023-04-21T06:43:36;99474.66;;;12.79;100.00
19672;BME280;9983;51.114;13.788;2023-04-21T06:48:36;99471.66;;;13.10;100.00
19672;BME280;9983;51.114;13.788;2023-04-21T06:53:37;99476.94;;;13.39;96.86
19672;BME280;9983;51.114;13.788;2023-04-21T06:58:37;99470.09;;;13.86;92.26
19672;BME280;9983;51.114;13.788;2023-04-21T07:03:37;99470.03;;;14.07;88.21
19672;BME280;9983;51.114;13.788;2023-04-21T07:08:37;99471.50;;;14.37;87.33
19672;BME280;9983;51.114;13.788;2023-04-21T07:13:38;99477.91;;;14.71;93.17
19672;BME280;9983;51.114;13.788;2023-04-21T07:18:39;99472.63;;;15.04;81.17
19672;BME280;9983;51.114;13.788;2023-04-21T07:23:39;99468.06;;;15.04;73.83
19672;BME280;9983;51.114;13.788;2023-04-21T07:28:40;99466.44;;;15.43;69.23
19672;BME280;9983;51.114;13.788;2023-04-21T07:33:40;99466.28;;;15.77;68.26
19672;BME280;9983;51.114;13.788;2023-04-21T07:38:40;99466.91;;;16.06;67.62
19672;BME280;9983;51.114;13.788;2023-04-21T07:43:42;99461.00;;;16.35;66.13
19672;BME280;9983;51.114;13.788;2023-04-21T07:48:42;99460.28;;;16.73;64.54
19672;BME280;9983;51.114;13.788;2023-04-21T07:53:43;99459.34;;;16.98;57.71
19672;BME280;9983;51.114;13.788;2023-04-21T07:58:43;99460.69;;;17.14;58.96
19672;BME280;9983;51.114;13.788;2023-04-21T08:03:44;99451.44;;;17.28;56.51
19672;BME280;9983;51.114;13.788;2023-04-21T08:08:44;99450.47;;;17.48;54.95
19672;BME280;9983;51.114;13.788;2023-04-21T08:13:44;99440.22;;;17.81;54.99
19672;BME280;9983;51.114;13.788;2023-04-21T08:18:45;99441.91;;;18.00;51.65
19672;BME280;9983;51.114;13.788;2023-04-21T08:23:45;99439.66;;;17.97;47.55
19672;BME280;9983;51.114;13.788;2023-04-21T08:28:45;99433.50;;;18.27;48.11
19672;BME280;9983;51.114;13.788;2023-04-21T08:33:48;99431.81;;;18.26;47.73
19672;BME280;9983;51.114;13.788;2023-04-21T08:38:48;99436.06;;;18.22;46.42
19672;BME280;9983;51.114;13.788;2023-04-21T08:43:48;99433.34;;;18.40;45.35
19672;BME280;9983;51.114;13.788;2023-04-21T08:48:49;99440.22;;;18.61;44.19
19672;BME280;9983;51.114;13.788;2023-04-21T08:53:49;99427.47;;;18.61;42.76
19672;BME280;9983;51.114;13.788;2023-04-21T08:58:49;99414.94;;;18.78;45.94
19672;BME280;9983;51.114;13.788;2023-04-21T09:03:49;99433.00;;;19.03;45.17
19672;BME280;9983;51.114;13.788;2023-04-21T09:08:52;99429.66;;;19.30;43.67
19672;BME280;9983;51.114;13.788;2023-04-21T09:13:55;99422.41;;;19.54;41.46
19672;BME280;9983;51.114;13.788;2023-04-21T09:18:57;99418.16;;;19.70;40.65
19672;BME280;9983;51.114;13.788;2023-04-21T09:24:03;99413.31;;;19.60;40.40
19672;BME280;9983;51.114;13.788;2023-04-21T09:29:05;99412.97;;;19.68;41.10
19672;BME280;9983;51.114;13.788;2023-04-21T09:34:17;99421.81;;;19.76;40.67
19672;BME280;9983;51.114;13.788;2023-04-21T09:39:21;99408.13;;;19.94;39.12
19672;BME280;9983;51.114;13.788;2023-04-21T09:44:22;99415.19;;;20.18;40.08
19672;BME280;9983;51.114;13.788;2023-04-21T09:49:22;99403.00;;;20.21;38.15
19672;BME280;9983;51.114;13.788;2023-04-21T09:54:28;99402.06;;;20.50;39.10
19672;BME280;9983;51.114;13.788;2023-04-21T09:59:34;99408.72;;;20.71;38.70
19672;BME280;9983;51.114;13.788;2023-04-21T10:04:35;99391.28;;;20.83;36.72
19672;BME280;9983;51.114;13.788;2023-04-21T10:09:44;99390.34;;;21.06;38.92
19672;BME280;9983;51.114;13.788;2023-04-21T10:14:45;99391.16;;;20.78;35.51
19672;BME280;9983;51.114;13.788;2023-04-21T10:19:51;99368.41;;;21.63;38.21
19672;BME280;9983;51.114;13.788;2023-04-21T10:24:54;99364.91;;;21.17;35.97
19672;BME280;9983;51.114;13.788;2023-04-21T10:29:59;99381.47;;;21.28;34.54
19672;BME280;9983;51.114;13.788;2023-04-21T10:35:00;99355.97;;;22.06;35.83
19672;BME280;9983;51.114;13.788;2023-04-21T10:40:00;99357.75;;;22.60;31.38
19672;BME280;9983;51.114;13.788;2023-04-21T10:45:06;99366.06;;;22.70;32.63
19672;BME280;9983;51.114;13.788;2023-04-21T10:55:11;99352.34;;;21.83;32.30
19672;BME280;9983;51.114;13.788;2023-04-21T11:00:17;99351.19;;;21.79;32.83
19672;BME280;9983;51.114;13.788;2023-04-21T11:05:18;99345.59;;;21.36;34.35
19672;BME280;9983;51.114;13.788;2023-04-21T11:10:18;99347.09;;;22.37;34.74
19672;BME280;9983;51.114;13.788;2023-04-21T11:15:18;99351.56;;;24.40;31.14
19672;BME280;9983;51.114;13.788;2023-04-21T11:20:19;99335.44;;;23.91;32.55
19672;BME280;9983;51.114;13.788;2023-04-21T11:25:19;99345.63;;;24.58;30.67
19672;BME280;9983;51.114;13.788;2023-04-21T11:30:20;99329.75;;;26.07;29.09
19672;BME280;9983;51.114;13.788;2023-04-21T11:35:21;99327.94;;;25.62;29.59
19672;BME280;9983;51.114;13.788;2023-04-21T11:40:22;99322.59;;;24.64;31.69
19672;BME280;9983;51.114;13.788;2023-04-21T11:45:22;99323.72;;;24.06;31.15
19672;BME280;9983;51.114;13.788;2023-04-21T11:50:30;99313.03;;;24.04;32.20
19672;BME280;9983;51.114;13.788;2023-04-21T11:55:33;99322.06;;;24.77;29.75
19672;BME280;9983;51.114;13.788;2023-04-21T12:00:36;99314.59;;;23.85;31.98
19672;BME280;9983;51.114;13.788;2023-04-21T12:05:36;99306.34;;;24.37;31.87
19672;BME280;9983;51.114;13.788;2023-04-21T12:10:36;99311.06;;;23.53;30.03
19672;BME280;9983;51.114;13.788;2023-04-21T12:15:36;99317.16;;;24.74;29.68
19672;BME280;9983;51.114;13.788;2023-04-21T12:20:37;99303.78;;;24.15;30.41
19672;BME280;9983;51.114;13.788;2023-04-21T12:25:37;99309.00;;;25.60;29.65
19672;BME280;9983;51.114;13.788;2023-04-21T12:30:37;99309.03;;;26.89;26.90
19672;BME280;9983;51.114;13.788;2023-04-21T12:35:37;99295.81;;;25.62;28.82
19672;BME280;9983;51.114;13.788;2023-04-21T12:40:38;99302.94;;;25.03;27.82
19672;BME280;9983;51.114;13.788;2023-04-21T12:45:38;99297.47;;;25.23;28.86
19672;BME280;9983;51.114;13.788;2023-04-21T12:50:38;99290.78;;;24.48;28.62
19672;BME280;9983;51.114;13.788;2023-04-21T12:55:39;99294.09;;;23.93;31.68
19672;BME280;9983;51.114;13.788;2023-04-21T13:00:39;99288.50;;;23.72;31.12
19672;BME280;9983;51.114;13.788;2023-04-21T13:05:40;99281.09;;;23.68;32.63
19672;BME280;9983;51.114;13.788;2023-04-21T13:10:40;99285.97;;;22.92;32.89
19672;BME280;9983;51.114;13.788;2023-04-21T13:15:40;99289.91;;;23.80;31.58
19672;BME280;9983;51.114;13.788;2023-04-21T13:20:41;99271.38;;;24.02;30.42
19672;BME280;9983;51.114;13.788;2023-04-21T13:25:41;99270.47;;;23.39;32.59
19672;BME280;9983;51.114;13.788;2023-04-21T13:30:44;99275.47;;;22.57;31.63
19672;BME280;9983;51.114;13.788;2023-04-21T13:35:44;99271.44;;;22.38;32.34
19672;BME280;9983;51.114;13.788;2023-04-21T13:40:45;99255.38;;;25.93;29.27
19672;BME280;9983;51.114;13.788;2023-04-21T13:45:46;99244.19;;;25.44;28.66
19672;BME280;9983;51.114;13.788;2023-04-21T13:50:50;99234.34;;;25.38;28.89
19672;BME280;9983;51.114;13.788;2023-04-21T13:55:50;99241.50;;;25.34;29.17
19672;BME280;9983;51.114;13.788;2023-04-21T14:00:51;99238.03;;;26.96;26.10
19672;BME280;9983;51.114;13.788;2023-04-21T14:05:52;99233.22;;;25.64;27.32
19672;BME280;9983;51.114;13.788;2023-04-21T14:10:52;99224.53;;;25.02;26.96
19672;BME280;9983;51.114;13.788;2023-04-21T14:15:52;99221.22;;;25.10;28.85
19672;BME280;9983;51.114;13.788;2023-04-21T14:20:52;99208.59;;;25.14;30.10
19672;BME280;9983;51.114;13.788;2023-04-21T14:25:53;99206.78;;;24.06;30.76
19672;BME280;9983;51.114;13.788;2023-04-21T14:30:53;99217.66;;;23.86;32.69
19672;BME280;9983;51.114;13.788;2023-04-21T14:35:53;99200.72;;;25.87;29.78
19672;BME280;9983;51.114;13.788;2023-04-21T14:40:53;99201.63;;;27.62;27.17
19672;BME280;9983;51.114;13.788;2023-04-21T14:45:54;99198.84;;;29.17;24.69
19672;BME280;9983;51.114;13.788;2023-04-21T14:50:54;99195.47;;;28.88;25.54
19672;BME280;9983;51.114;13.788;2023-04-21T14:55:56;99193.16;;;26.67;27.64
19672;BME280;9983;51.114;13.788;2023-04-21T15:00:57;99186.81;;;26.22;27.66
19672;BME280;9983;51.114;13.788;2023-04-21T15:05:57;99186.09;;;24.81;29.90
19672;BME280;9983;51.114;13.788;2023-04-21T15:10:57;99178.09;;;25.41;29.95
19672;BME280;9983;51.114;13.788;2023-04-21T15:15:58;99181.72;;;24.55;30.53
19672;BME280;9983;51.114;13.788;2023-04-21T15:20:58;99179.94;;;24.03;31.01
19672;BME280;9983;51.114;13.788;2023-04-21T15:25:58;99171.28;;;24.62;30.87
19672;BME280;9983;51.114;13.788;2023-04-21T15:30:58;99162.41;;;26.60;28.18
19672;BME280;9983;51.114;13.788;2023-04-21T15:35:59;99175.19;;;28.04;26.72
19672;BME280;9983;51.114;13.788;2023-04-21T15:40:59;99166.41;;;28.44;25.38
19672;BME280;9983;51.114;13.788;2023-04-21T15:45:59;99154.44;;;29.00;25.04
19672;BME280;9983;51.114;13.788;2023-04-21T15:51:00;99153.78;;;30.40;24.22
19672;BME280;9983;51.114;13.788;2023-04-21T15:56:00;99146.09;;;29.32;24.33
19672;BME280;9983;51.114;13.788;2023-04-21T16:01:01;99143.63;;;28.15;25.87
19672;BME280;9983;51.114;13.788;2023-04-21T16:06:01;99151.88;;;26.33;27.26
19672;BME280;9983;51.114;13.788;2023-04-21T16:11:01;99157.81;;;27.37;26.67
19672;BME280;9983;51.114;13.788;2023-04-21T16:16:02;99146.81;;;26.06;27.92
19672;BME280;9983;51.114;13.788;2023-04-21T16:21:02;99140.63;;;26.29;27.14
19672;BME280;9983;51.114;13.788;2023-04-21T16:26:02;99143.38;;;26.24;28.36
19672;BME280;9983;51.114;13.788;2023-04-21T16:31:05;99137.81;;;25.26;28.72
19672;BME280;9983;51.114;13.788;2023-04-21T16:36:05;99136.38;;;26.03;28.75
19672;BME280;9983;51.114;13.788;2023-04-21T16:41:05;99128.22;;;25.88;28.38
19672;BME280;9983;51.114;13.788;2023-04-21T16:46:05;99124.06;;;25.95;28.06
19672;BME280;9983;51.114;13.788;2023-04-21T16:51:06;99124.66;;;25.18;28.73
19672;BME280;9983;51.114;13.788;2023-04-21T16:56:06;99127.38;;;25.23;29.55
19672;BME280;9983;51.114;13.788;2023-04-21T17:01:06;99125.81;;;24.51;29.96
19672;BME280;9983;51.114;13.788;2023-04-21T17:06:07;99119.50;;;24.45;30.67
19672;BME280;9983;51.114;13.788;2023-04-21T17:11:09;99125.72;;;24.00;30.40
19672;BME280;9983;51.114;13.788;2023-04-21T17:16:10;99120.19;;;23.80;30.89
19672;BME280;9983;51.114;13.788;2023-04-21T17:21:10;99125.19;;;22.89;32.08
19672;BME280;9983;51.114;13.788;2023-04-21T17:26:11;99120.25;;;22.22;33.93
19672;BME280;9983;51.114;13.788;2023-04-21T17:31:12;99119.25;;;21.79;34.22
19672;BME280;9983;51.114;13.788;2023-04-21T17:36:13;99111.34;;;21.56;34.56
19672;BME280;9983;51.114;13.788;2023-04-21T17:41:13;99125.06;;;21.39;35.06
19672;BME280;9983;51.114;13.788;2023-04-21T17:46:13;99120.28;;;20.91;36.01
19672;BME280;9983;51.114;13.788;2023-04-21T17:51:13;99122.09;;;20.86;36.56
19672;BME280;9983;51.114;13.788;2023-04-21T17:56:14;99122.09;;;20.69;36.27
19672;BME280;9983;51.114;13.788;2023-04-21T18:01:14;99124.59;;;20.54;37.18
19672;BME280;9983;51.114;13.788;2023-04-21T18:06:15;99117.28;;;20.26;37.84
19672;BME280;9983;51.114;13.788;2023-04-21T18:11:15;99134.88;;;19.90;38.64
19672;BME280;9983;51.114;13.788;2023-04-21T18:16:15;99131.94;;;19.91;38.87
19672;BME280;9983;51.114;13.788;2023-04-21T18:21:16;99126.44;;;19.75;38.61
19672;BME280;9983;51.114;13.788;2023-04-21T18:26:16;99131.16;;;19.67;39.29
19672;BME280;9983;51.114;13.788;2023-04-21T18:31:16;99130.84;;;19.64;39.65
19672;BME280;9983;51.114;13.788;2023-04-21T18:36:16;99135.88;;;19.20;40.27
19672;BME280;9983;51.114;13.788;2023-04-21T18:41:17;99135.66;;;19.22;40.59
19672;BME280;9983;51.114;13.788;2023-04-21T18:46:17;99133.91;;;19.16;40.76
19672;BME280;9983;51.114;13.788;2023-04-21T18:51:18;99137.22;;;18.94;40.99
19672;BME280;9983;51.114;13.788;2023-04-21T18:56:18;99148.06;;;18.94;41.77
19672;BME280;9983;51.114;13.788;2023-04-21T19:01:18;99137.69;;;18.68;41.82
19672;BME280;9983;51.114;13.788;2023-04-21T19:06:18;99138.63;;;18.62;41.83
19672;BME280;9983;51.114;13.788;2023-04-21T19:11:19;99138.81;;;18.49;42.46
19672;BME280;9983;51.114;13.788;2023-04-21T19:16:19;99140.34;;;18.45;42.69
19672;BME280;9983;51.114;13.788;2023-04-21T19:21:19;99151.06;;;18.40;42.66
19672;BME280;9983;51.114;13.788;2023-04-21T19:26:20;99145.00;;;18.26;43.57
19672;BME280;9983;51.114;13.788;2023-04-21T19:31:20;99134.94;;;18.03;45.02
19672;BME280;9983;51.114;13.788;2023-04-21T19:36:23;99135.59;;;17.87;46.78
19672;BME280;9983;51.114;13.788;2023-04-21T19:41:23;99138.34;;;17.69;49.21
19672;BME280;9983;51.114;13.788;2023-04-21T19:46:23;99138.81;;;17.48;48.83
19672;BME280;9983;51.114;13.788;2023-04-21T19:51:24;99129.16;;;17.33;49.34
19672;BME280;9983;51.114;13.788;2023-04-21T19:56:24;99129.47;;;17.25;50.35
19672;BME280;9983;51.114;13.788;2023-04-21T20:01:24;99133.25;;;17.06;50.27
19672;BME280;9983;51.114;13.788;2023-04-21T20:06:25;99128.41;;;16.90;50.86
19672;BME280;9983;51.114;13.788;2023-04-21T20:11:26;99131.13;;;16.90;51.84
19672;BME280;9983;51.114;13.788;2023-04-21T20:16:26;99133.59;;;16.66;52.13
19672;BME280;9983;51.114;13.788;2023-04-21T20:21:26;99133.59;;;16.66;52.23
19672;BME280;9983;51.114;13.788;2023-04-21T20:26:27;99143.31;;;16.49;50.85
19672;BME280;9983;51.114;13.788;2023-04-21T20:31:27;99136.34;;;16.35;50.95
19672;BME280;9983;51.114;13.788;2023-04-21T20:36:27;99143.41;;;16.36;51.39
19672;BME280;9983;51.114;13.788;2023-04-21T20:41:28;99145.09;;;16.37;51.64
19672;BME280;9983;51.114;13.788;2023-04-21T20:46:30;99153.53;;;16.16;51.79
19672;BME280;9983;51.114;13.788;2023-04-21T20:51:30;99150.69;;;16.11;53.04
19672;BME280;9983;51.114;13.788;2023-04-21T20:56:32;99154.25;;;15.73;54.48
19672;BME280;9983;51.114;13.788;2023-04-21T21:01:32;99155.09;;;15.67;56.38
19672;BME280;9983;51.114;13.788;2023-04-21T21:06:37;99151.00;;;15.45;59.43
19672;BME280;9983;51.114;13.788;2023-04-21T21:11:37;99146.94;;;15.23;64.35
19672;BME280;9983;51.114;13.788;2023-04-21T21:16:38;99161.53;;;14.95;62.60
19672;BME280;9983;51.114;13.788;2023-04-21T21:21:39;99159.91;;;14.68;68.30
19672;BME280;9983;51.114;13.788;2023-04-21T21:26:39;99154.69;;;14.27;71.69
19672;BME280;9983;51.114;13.788;2023-04-21T21:31:39;99153.22;;;14.11;74.03
19672;BME280;9983;51.114;13.788;2023-04-21T21:36:39;99163.13;;;13.91;74.31
19672;BME280;9983;51.114;13.788;2023-04-21T21:41:40;99164.59;;;13.93;73.51
19672;BME280;9983;51.114;13.788;2023-04-21T21:46:41;99168.00;;;13.54;76.40
19672;BME280;9983;51.114;13.788;2023-04-21T21:51:41;99169.59;;;13.42;76.69
19672;BME280;9983;51.114;13.788;2023-04-21T21:56:41;99173.41;;;13.67;70.17
19672;BME280;9983;51.114;13.788;2023-04-21T22:01:42;99175.31;;;13.74;65.80
19672;BME280;9983;51.114;13.788;2023-04-21T22:06:42;99185.25;;;13.73;63.59
19672;BME280;9983;51.114;13.788;2023-04-21T22:11:44;99185.47;;;13.72;64.74
19672;BME280;9983;51.114;13.788;2023-04-21T22:16:45;99188.84;;;13.93;65.93
19672;BME280;9983;51.114;13.788;2023-04-21T22:21:45;99183.84;;;13.84;66.47
19672;BME280;9983;51.114;13.788;2023-04-21T22:26:46;99179.25;;;13.78;69.14
19672;BME280;9983;51.114;13.788;2023-04-21T22:31:47;99191.63;;;13.59;66.85
19672;BME280;9983;51.114;13.788;2023-04-21T22:36:47;99196.25;;;13.72;64.70
19672;BME280;9983;51.114;13.788;2023-04-21T22:41:47;99199.19;;;13.36;65.22
19672;BME280;9983;51.114;13.788;2023-04-21T22:46:47;99208.22;;;12.93;73.00
19672;BME280;9983;51.114;13.788;2023-04-21T22:51:48;99208.75;;;12.82;73.61
19672;BME280;9983;51.114;13.788;2023-04-21T22:56:49;99211.44;;;12.82;73.90
19672;BME280;9983;51.114;13.788;2023-04-21T23:01:49;99216.28;;;12.93;72.68
19672;BME280;9983;51.114;13.788;2023-04-21T23:06:49;99212.50;;;12.60;76.40
19672;BME280;9983;51.114;13.788;2023-04-21T23:11:50;99224.16;;;12.67;74.01
19672;BME280;9983;51.114;13.788;2023-04-21T23:16:50;99209.59;;;12.12;75.32
19672;BME280;9983;51.114;13.788;2023-04-21T23:21:50;99215.84;;;12.62;72.23
19672;BME280;9983;51.114;13.788;2023-04-21T23:26:51;99208.03;;;12.25;76.82
19672;BME280;9983;51.114;13.788;2023-04-21T23:31:51;99204.06;;;12.42;76.87
19672;BME280;9983;51.114;13.788;2023-04-21T23:36:51;99203.28;;;11.84;79.50
19672;BME280;9983;51.114;13.788;2023-04-21T23:41:51;99193.06;;;12.15;75.66
19672;BME280;9983;51.114;13.788;2023-04-21T23:46:52;99199.59;;;12.06;77.61
19672;BME280;9983;51.114;13.788;2023-04-21T23:51:52;99203.16;;;11.92;78.91
19672;BME280;9983;51.114;13.788;2023-04-21T23:56:52;99197.75;;;11.56;79.13
